Latest Weather Observations for Albury

IDV60801

Issued at 5:05 am EST Friday 25 July 2014 (issued every 30 minutes, with the page automatically refreshed every 10 minutes)

About weather observations | Map of weather stations | Latest weather observations for VIC | Other Formats
Station Details ID: 072160 Name: ALBURY AIRPORT AWS Lat: -36.07 Lon: 146.95 Height: 163.5 m
Data from the previous 72 hours. | See also: Recent months at Albury
Date/Time
EST
Temp
°C
App
Temp
°C
Dew
Point
Rel
Hum
%
Delta-T
°C
Wind Press
QNH
hPa
Press
MSL
hPa
Rain
since 9 am
mm
Dir
 
Spd
km/h
Gust
km/h
Spd
kts
Gust
kts
25/05:00am 3.4 2.0 3.4 100 0.0 N 0 0 0 0 1018.0 1018.3 1.8
25/04:56am 3.3 1.9 3.3 100 0.0 N 0 0 0 0 1017.9 - 1.8
25/04:41am 3.5 2.1 3.5 100 0.0 NNE 0 0 0 0 1017.6 - 1.8
25/04:30am 3.2 1.7 3.2 100 0.0 NNE 0 0 0 0 1017.6 - 1.8
25/04:23am 3.3 1.9 3.3 100 0.0 CALM 0 0 0 0 1017.7 - 1.8
25/04:00am 3.4 2.0 3.4 100 0.0 CALM 0 0 0 0 1017.6 1017.9 1.8
25/03:58am 3.4 2.0 3.4 100 0.0 CALM 0 0 0 0 1017.6 - 1.8
25/03:30am 3.6 2.2 3.6 100 0.0 CALM 0 0 0 0 1017.5 - 1.8
25/03:00am 3.2 1.7 3.2 100 0.0 CALM 0 0 0 0 1017.5 1017.8 1.8
25/02:30am 3.7 1.6 3.7 100 0.0 ENE 4 7 2 4 1017.2 - 1.8
25/02:00am 4.4 2.4 4.4 100 0.0 ENE 4 7 2 4 1017.2 1017.5 1.8
25/01:30am 5.3 4.2 5.0 98 0.1 CALM 0 0 0 0 1017.2 - 1.8
25/01:15am 5.2 4.1 4.9 98 0.1 CALM 0 0 0 0 1017.1 - 1.8
25/01:00am 5.8 4.0 5.5 98 0.1 ENE 4 6 2 3 1017.0 1017.3 1.8
25/12:30am 6.6 4.6 6.3 98 0.1 NE 6 9 3 5 1017.0 - 1.8
25/12:00am 6.4 5.5 6.0 97 0.2 NE 0 0 0 0 1017.2 1017.5 1.8
 
Date/Time
EST
Temp
°C
App
Temp
°C
Dew
Point
Rel
Hum
%
Delta-T
°C
Wind Press
QNH
hPa
Press
MSL
hPa
Rain
since 9 am
mm
Dir
 
Spd
km/h
Gust
km/h
Spd
kts
Gust
kts
24/11:30pm 6.1 5.0 4.9 92 0.5 CALM 0 0 0 0 1017.1 - 1.8
24/11:00pm 7.7 6.6 7.1 96 0.3 NE 2 6 1 3 1017.0 1017.3 1.8
24/10:30pm 7.7 5.7 7.1 96 0.3 E 7 11 4 6 1017.0 - 1.8
24/10:00pm 7.1 5.0 6.0 93 0.5 ENE 6 7 3 4 1017.4 1017.7 1.8
24/09:30pm 7.8 5.8 6.9 94 0.4 E 7 9 4 5 1017.2 - 1.8
24/09:00pm 8.4 6.1 7.5 94 0.4 E 9 9 5 5 1017.3 1017.6 1.8
24/08:30pm 8.5 6.6 7.6 94 0.4 E 7 9 4 5 1017.1 - 1.8
24/08:00pm 8.3 6.4 7.4 94 0.4 E 7 7 4 4 1017.0 1017.3 1.8
24/07:30pm 8.8 7.0 7.3 90 0.7 ENE 6 9 3 5 1016.9 - 1.8
24/07:00pm 8.9 7.9 7.2 89 0.8 ENE 2 7 1 4 1016.5 1016.8 1.8
24/06:30pm 8.9 7.4 7.0 88 0.9 ENE 4 7 2 4 1016.2 - 1.8
24/06:00pm 9.5 7.7 7.3 86 1.0 ESE 6 9 3 5 1015.8 1016.1 1.8
24/05:30pm 9.8 8.0 7.2 84 1.2 SE 6 7 3 4 1015.8 - 1.8
24/05:00pm 10.6 8.7 7.7 82 1.4 SE 7 9 4 5 1015.9 1016.2 1.8
24/04:30pm 11.1 8.5 7.8 80 1.6 SE 11 15 6 8 1016.0 - 1.8
24/04:00pm 11.5 9.5 8.5 82 1.5 SSE 9 11 5 6 1015.9 1016.2 1.8
24/03:30pm 11.5 9.1 8.5 82 1.5 SSE 11 13 6 7 1015.9 - 1.8
24/03:00pm 11.6 9.1 8.1 79 1.7 SE 11 13 6 7 1016.1 1016.4 1.8
24/02:30pm 12.3 9.4 8.2 76 2.0 ESE 13 19 7 10 1016.1 - 1.8
24/02:00pm 11.5 8.7 8.5 82 1.5 ESE 13 17 7 9 1016.3 1016.6 1.8
24/01:30pm 10.7 8.7 8.6 87 1.0 SE 9 13 5 7 1016.7 - 1.8
24/01:00pm 10.5 8.2 9.1 91 0.7 SE 11 15 6 8 1017.2 1017.5 1.8
24/12:30pm 8.2 6.3 7.4 95 0.4 ESE 7 9 4 5 1017.9 - 1.8
24/12:00pm 7.7 5.7 7.0 95 0.3 SSE 7 9 4 5 1018.5 1018.8 1.8
24/11:30am 7.5 5.4 6.6 94 0.4 S 7 9 4 5 1018.9 - 1.8
24/11:00am 7.6 5.8 7.0 96 0.3 NNE 6 9 3 5 1019.0 1019.4 1.8
24/10:44am 7.4 5.6 7.1 98 0.1 S 6 11 3 6 1019.0 - 1.6
24/10:30am 6.9 4.9 6.3 96 0.3 E 6 11 3 6 1019.0 - 1.4
24/10:25am 6.8 5.5 6.2 96 0.3 NE 2 9 1 5 1019.1 - 1.2
24/10:03am 6.4 3.7 5.5 94 0.4 ESE 9 13 5 7 1019.3 - 0.4
24/10:00am 6.3 3.5 5.3 93 0.4 SE 9 13 5 7 1019.1 1019.5 0.4
24/09:52am 6.4 3.7 5.4 93 0.4 E 9 13 5 7 1019.2 - 0.4
24/09:30am 6.3 4.8 5.1 92 0.5 ESE 2 6 1 3 1019.5 - 0.0
24/09:00am 5.5 4.4 4.9 96 0.3 CALM 0 0 0 0 1019.4 1019.8 0.0
24/08:30am 5.0 3.8 4.7 98 0.1 CALM 0 0 0 0 1019.3 - 0.0
24/08:00am 4.6 3.4 4.6 100 0.0 CALM 0 6 0 3 1019.2 1019.6 0.0
24/07:30am 3.9 1.8 3.9 100 0.0 NE 4 7 2 4 1019.1 - 0.0
24/07:00am 4.0 2.7 4.0 100 0.0 CALM 0 6 0 3 1019.1 1019.5 0.0
24/06:30am 3.1 0.3 3.1 100 0.0 WNW 7 9 4 5 1019.1 - 0.0
24/06:00am 2.6 1.0 2.6 100 0.0 NE 0 0 0 0 1018.9 1019.2 0.0
24/05:30am 2.4 0.8 2.4 100 0.0 CALM 0 0 0 0 1019.2 - 0.0
24/05:00am 2.5 0.9 2.5 100 0.0 CALM 0 0 0 0 1019.2 1019.6 0.0
24/04:30am 1.7 -1.2 1.7 100 0.0 N 6 11 3 6 1019.3 - 0.0
24/04:00am 2.5 -0.4 2.5 100 0.0 N 7 9 4 5 1019.2 1019.6 0.0
24/03:30am 2.5 -0.4 2.5 100 0.0 NW 7 11 4 6 1019.1 - 0.0
24/03:00am 1.6 -1.3 1.6 100 0.0 ENE 6 7 3 4 1019.3 1019.7 0.0
24/02:30am 2.2 -0.6 2.2 100 0.0 ENE 6 7 3 4 1019.6 - 0.0
24/02:00am 2.5 -0.2 2.5 100 0.0 E 6 7 3 4 1019.5 1019.9 0.0
24/01:53am 2.7 0.0 2.7 100 0.0 NE 6 7 3 4 1019.5 - 0.0
24/01:34am 2.1 -0.7 2.1 100 0.0 NE 6 7 3 4 1019.5 - 0.0
24/01:30am 1.8 -1.0 1.8 100 0.0 ENE 6 7 3 4 1019.5 - 0.0
24/01:23am 2.2 -0.6 2.2 100 0.0 NE 6 7 3 4 1019.5 - 0.0
24/01:00am 2.6 1.0 2.6 100 0.0 CALM 0 0 0 0 1019.8 1020.2 0.0
24/12:30am 2.7 1.1 2.6 99 0.0 CALM 0 0 0 0 1020.1 - 0.0
24/12:25am 2.8 1.2 2.7 99 0.0 CALM 0 0 0 0 1020.2 - 0.0
24/12:02am 3.5 2.1 3.4 99 0.0 CALM 0 0 0 0 1020.4 - 0.0
24/12:00am 3.4 2.0 3.3 99 0.0 CALM 0 0 0 0 1020.4 1020.8 0.0
 
Date/Time
EST
Temp
°C
App
Temp
°C
Dew
Point
Rel
Hum
%
Delta-T
°C
Wind Press
QNH
hPa
Press
MSL
hPa
Rain
since 9 am
mm
Dir
 
Spd
km/h
Gust
km/h
Spd
kts
Gust
kts
23/11:45pm 3.3 1.8 3.2 99 0.0 CALM 0 0 0 0 1020.6 - 0.0
23/11:30pm 3.6 2.2 3.5 99 0.0 CALM 0 0 0 0 1020.8 - 0.0
23/11:00pm 3.8 2.4 3.7 99 0.0 CALM 0 0 0 0 1021.1 1021.5 0.0
23/10:30pm 3.9 2.6 3.9 100 0.0 CALM 0 0 0 0 1021.4 - 0.0
23/10:23pm 4.0 2.7 4.0 100 0.0 CALM 0 0 0 0 1021.5 - 0.0
23/10:04pm 2.9 1.3 2.6 98 0.1 CALM 0 0 0 0 1021.6 - 0.0
23/10:01pm 3.1 1.6 2.8 98 0.1 CALM 0 0 0 0 1021.6 - 0.0
23/10:00pm 3.2 1.7 2.9 98 0.1 CALM 0 0 0 0 1021.6 1022.0 0.0
23/09:39pm 3.0 1.1 2.6 97 0.2 ENE 2 7 1 4 1021.8 - 0.0
23/09:30pm 2.9 -0.1 2.2 95 0.3 E 7 9 4 5 1021.9 - 0.0
23/09:00pm 3.9 1.2 3.5 97 0.2 NNE 7 9 4 5 1022.0 1022.4 0.0
23/08:30pm 4.9 3.7 4.5 97 0.2 CALM 0 0 0 0 1021.8 - 0.0
23/08:00pm 5.1 3.9 4.5 96 0.3 CALM 0 0 0 0 1021.4 1021.8 0.0
23/07:30pm 5.5 3.8 4.2 91 0.6 NE 2 7 1 4 1021.2 - 0.0
23/07:00pm 7.0 6.0 5.6 91 0.6 CALM 0 0 0 0 1021.1 1021.5 0.0
23/06:30pm 7.5 6.4 5.3 86 1.0 CALM 0 0 0 0 1021.1 - 0.0
23/06:00pm 8.6 7.7 6.1 84 1.1 CALM 0 0 0 0 1020.9 1021.3 0.0
23/05:30pm 9.9 7.8 6.6 80 1.6 E 7 7 4 4 1020.6 - 0.0
23/05:00pm 11.4 9.5 6.5 72 2.3 E 6 9 3 5 1020.5 1020.9 0.0
23/04:30pm 12.3 10.4 6.6 68 2.7 ESE 6 7 3 4 1020.4 - 0.0
23/04:00pm 13.1 11.0 6.7 65 3.1 ESE 7 11 4 6 1020.5 1020.9 0.0
23/03:30pm 13.3 11.1 6.4 63 3.3 ESE 7 9 4 5 1020.6 - 0.0
23/03:00pm 13.8 11.9 6.9 63 3.4 E 6 7 3 4 1020.7 1021.1 0.0
23/02:30pm 13.5 11.7 7.1 65 3.1 SE 6 11 3 6 1020.9 - 0.0
23/02:00pm 12.9 10.8 6.5 65 3.1 SE 7 11 4 6 1021.1 1021.5 0.0
23/01:30pm 12.5 10.2 7.4 71 2.5 SE 9 13 5 7 1021.3 - 0.0
23/01:00pm 11.8 9.4 6.9 72 2.4 SE 9 11 5 6 1021.9 1022.3 0.0
23/12:30pm 11.3 9.1 6.4 72 2.3 ESE 7 11 4 6 1022.7 - 0.0
23/12:00pm 10.6 8.5 5.8 72 2.2 ESE 6 9 3 5 1023.5 1023.8 0.0
23/11:30am 9.5 7.6 4.7 72 2.2 ENE 4 7 2 4 1024.2 - 0.0
23/11:00am 8.3 6.0 4.7 78 1.6 E 6 9 3 5 1024.6 1025.0 0.0
23/10:30am 7.3 4.8 3.9 79 1.5 E 6 9 3 5 1024.9 - 0.0
23/10:00am 7.1 4.9 3.5 78 1.5 E 4 7 2 4 1025.2 1025.6 0.0
23/09:30am 5.8 4.3 3.0 82 1.2 CALM 0 0 0 0 1025.4 - 0.0
23/09:00am 3.4 1.8 2.4 93 0.4 CALM 0 0 0 0 1025.6 1026.0 0.0
23/08:30am 1.8 0.1 1.7 99 0.0 CALM 0 0 0 0 1025.4 - 0.0
23/08:00am 1.2 -0.6 1.2 100 0.0 CALM 0 0 0 0 1025.4 1025.8 0.0
23/07:30am -0.7 -2.8 -0.8 99 0.0 CALM 0 0 0 0 1025.3 - 0.0
23/07:00am -0.2 -2.6 -0.2 100 0.0 NE 2 7 1 4 1024.9 1025.3 0.0
23/06:30am -0.5 -3.7 -0.5 100 0.0 N 6 9 3 5 1024.5 - 0.0
23/06:00am -1.3 -4.6 -1.6 98 0.0 NNW 6 7 3 4 1024.2 1024.6 0.0
23/05:30am -0.7 -2.8 -0.8 99 0.0 CALM 0 6 0 3 1024.1 - 0.0
23/05:00am -1.1 -5.0 -1.4 98 0.1 NW 9 9 5 5 1024.1 1024.5 0.0
23/04:30am -0.1 -2.1 -0.2 99 0.0 CALM 0 0 0 0 1024.0 - 0.0
23/04:00am -0.4 -4.2 -0.5 99 0.0 NNW 9 11 5 6 1024.3 1024.7 0.0
23/03:30am 0.3 -1.7 0.2 99 0.0 CALM 0 0 0 0 1024.2 - 0.0
23/03:00am 0.5 -1.8 0.4 99 0.0 N 2 7 1 4 1024.2 1024.6 0.0
23/02:30am 0.1 -1.9 -0.2 98 0.1 CALM 0 0 0 0 1024.2 - 0.0
23/02:00am 0.4 -1.6 0.1 98 0.1 CALM 0 0 0 0 1024.1 1024.5 0.0
23/01:45am 0.5 -1.5 0.2 98 0.1 CALM 0 0 0 0 1024.1 - 0.0
23/01:30am 0.5 -1.5 0.1 97 0.1 CALM 0 0 0 0 1024.1 - 0.0
23/01:24am 0.6 -1.4 0.2 97 0.1 CALM 0 0 0 0 1024.2 - 0.0
23/01:00am 0.8 -1.1 0.4 97 0.1 CALM 0 4 0 2 1024.5 1024.9 0.0
23/12:30am 0.9 -2.1 0.5 97 0.1 NNW 6 9 3 5 1024.7 - 0.0
23/12:00am 0.9 -1.0 0.3 96 0.2 CALM 0 0 0 0 1024.8 1025.2 0.0
 
Date/Time
EST
Temp
°C
App
Temp
°C
Dew
Point
Rel
Hum
%
Delta-T
°C
Wind Press
QNH
hPa
Press
MSL
hPa
Rain
since 9 am
mm
Dir
 
Spd
km/h
Gust
km/h
Spd
kts
Gust
kts
22/11:30pm 1.6 -0.2 0.9 95 0.3 CALM 0 0 0 0 1025.1 - 0.0
22/11:00pm 1.8 0.0 1.1 95 0.3 CALM 0 0 0 0 1025.1 1025.5 0.0
22/10:30pm 2.0 0.2 1.1 94 0.3 CALM 0 0 0 0 1025.0 - 0.0
22/10:00pm 2.3 0.5 1.3 93 0.4 CALM 0 0 0 0 1024.9 1025.3 0.0
22/09:30pm 2.7 0.9 1.4 91 0.5 CALM 0 0 0 0 1024.7 - 0.0
22/09:00pm 2.9 1.1 1.4 90 0.6 CALM 0 0 0 0 1024.4 1024.8 0.0
22/08:30pm 3.2 1.4 1.1 86 0.8 CALM 0 0 0 0 1024.1 - 0.0
22/08:00pm 4.1 2.5 2.3 88 0.7 CALM 0 0 0 0 1024.0 1024.3 0.0
22/07:30pm 5.2 3.7 2.9 85 1.0 CALM 0 0 0 0 1023.8 - 0.0
22/07:00pm 5.5 4.0 3.2 85 1.0 CALM 0 0 0 0 1023.5 1023.8 0.0
22/06:30pm 7.3 5.5 3.7 78 1.6 N 2 6 1 3 1023.6 - 0.0
22/06:00pm 7.9 6.6 3.9 76 1.7 CALM 0 0 0 0 1023.4 1023.7 0.0
22/05:30pm 9.7 8.4 3.9 67 2.6 CALM 0 4 0 2 1023.3 - 0.0
22/05:00pm 11.9 9.6 4.6 61 3.3 E 6 7 3 4 1023.0 1023.3 0.0
22/04:30pm 12.4 9.5 2.8 52 4.2 ESE 7 9 4 5 1023.1 - 0.0
22/04:00pm 12.9 10.2 3.6 53 4.2 ESE 7 9 4 5 1023.2 1023.5 0.0
22/03:30pm 12.9 10.1 3.3 52 4.3 ESE 7 11 4 6 1023.3 - 0.0
22/03:00pm 13.0 10.5 3.9 54 4.1 SE 6 9 3 5 1023.4 1023.7 0.0
22/02:30pm 12.9 10.6 5.6 61 3.4 SE 7 9 4 5 1023.4 - 0.0
22/02:00pm 12.6 10.3 5.5 62 3.3 SSE 7 13 4 7 1023.6 1023.9 0.0
22/01:30pm 11.9 9.7 5.1 63 3.2 SE 6 7 3 4 1023.9 - 0.0
22/01:00pm 11.3 8.9 4.5 63 3.1 SE 6 7 3 4 1024.2 1024.6 0.0
22/12:30pm 10.7 9.5 4.4 65 2.8 CALM 0 6 0 3 1024.6 - 0.0
22/12:00pm 10.5 8.6 4.9 68 2.5 ENE 4 9 2 5 1025.1 1025.5 0.0
22/11:30am 9.7 8.4 3.9 67 2.6 CALM 0 0 0 0 1025.6 - 0.0
22/11:00am 8.9 7.1 3.7 70 2.3 E 2 6 1 3 1026.0 1026.4 0.0
22/10:30am 6.7 4.3 2.4 74 1.8 SSE 4 6 2 3 1026.3 - 0.0
22/10:00am 6.7 5.1 2.6 75 1.7 CALM 0 0 0 0 1026.3 1026.7 0.0
22/09:30am 5.7 4.2 2.9 82 1.2 CALM 0 0 0 0 1026.2 - 0.0
22/09:00am 3.3 1.6 1.7 89 0.6 CALM 0 0 0 0 1026.2 1026.6 0.2
22/08:30am 1.9 -1.0 1.3 96 0.2 NNW 6 7 3 4 1026.1 - 0.2
22/08:00am 0.8 -1.4 0.8 100 0.0 NE 2 6 1 3 1025.7 1026.1 0.0
22/07:30am -0.6 -3.8 -0.7 99 0.0 E 6 7 3 4 1025.7 - 0.0
22/07:00am -0.6 -3.1 -0.7 99 0.0 NW 2 6 1 3 1025.4 1025.8 0.0
22/06:30am -1.1 -3.3 -1.4 98 0.1 CALM 0 0 0 0 1024.8 - 0.0
22/06:00am -0.6 -2.7 -0.9 98 0.1 CALM 0 6 0 3 1024.5 1024.9 0.0
22/05:30am -0.4 -3.6 -0.7 98 0.1 N 6 7 3 4 1024.5 - 0.0

Other Formats:

Comma delimited format used in spreadsheet applications
http://www.bom.gov.au/fwo/IDV60801/IDV60801.95896.axf

JavaScript Object Notation format (JSON) in row-major order
http://www.bom.gov.au/fwo/IDV60801/IDV60801.95896.json